createdAt,value
2024-05-09T00:02:32.033Z,9.93
2024-05-09T00:05:18.031Z,8.43
2024-05-09T00:08:04.025Z,6.90
2024-05-09T00:10:50.019Z,10.53
2024-05-09T00:13:35.966Z,9.73
2024-05-09T00:16:21.911Z,9.40
2024-05-09T00:19:07.995Z,11.30
2024-05-09T00:21:53.816Z,10.23
2024-05-09T00:24:39.684Z,8.50
2024-05-09T00:27:25.544Z,7.10
2024-05-09T00:30:17.489Z,10.13
2024-05-09T00:33:09.879Z,8.70
2024-05-09T00:35:57.060Z,9.80
2024-05-09T00:38:43.133Z,7.80
2024-05-09T00:41:28.943Z,8.23
2024-05-09T00:44:14.924Z,7.47
2024-05-09T00:47:00.835Z,10.83
2024-05-09T00:49:46.837Z,8.13
2024-05-09T00:52:33.200Z,9.90
2024-05-09T00:55:19.215Z,7.90
2024-05-09T00:58:05.695Z,6.83
2024-05-09T01:00:51.929Z,8.13
2024-05-09T01:03:37.829Z,7.67
2024-05-09T01:06:24.247Z,8.13
2024-05-09T01:09:09.998Z,7.40
2024-05-09T01:11:56.074Z,8.27
2024-05-09T01:14:42.012Z,8.93
2024-05-09T01:17:28.260Z,7.50
2024-05-09T01:20:20.191Z,6.80
2024-05-09T01:23:15.906Z,5.53
2024-05-09T01:26:02.665Z,5.87
2024-05-09T01:28:48.553Z,6.47
2024-05-09T01:31:34.486Z,6.87
2024-05-09T01:34:20.758Z,5.53
2024-05-09T01:37:07.243Z,7.77
2024-05-09T01:39:52.903Z,6.50
2024-05-09T01:42:38.918Z,8.37
2024-05-09T01:45:24.952Z,6.90
2024-05-09T01:48:11.634Z,6.63
2024-05-09T01:50:57.935Z,5.80
2024-05-09T01:53:44.782Z,5.00
2024-05-09T01:56:30.986Z,4.87
2024-05-09T01:59:17.083Z,4.27
2024-05-09T02:02:03.135Z,4.83
2024-05-09T02:04:50.083Z,5.27
2024-05-09T02:07:36.216Z,4.60
2024-05-09T02:10:26.568Z,4.23
2024-05-09T02:13:18.786Z,4.47
2024-05-09T02:16:04.779Z,4.23
2024-05-09T02:18:51.483Z,4.10
2024-05-09T02:21:37.459Z,3.97
2024-05-09T02:24:23.205Z,3.57
2024-05-09T02:27:09.261Z,4.30
2024-05-09T02:29:55.242Z,3.87
2024-05-09T02:32:41.180Z,3.67
2024-05-09T02:35:27.782Z,3.70
2024-05-09T02:38:13.785Z,3.50
2024-05-09T02:40:59.950Z,4.60
2024-05-09T02:43:45.903Z,3.63
2024-05-09T02:46:31.665Z,3.00
2024-05-09T02:49:17.703Z,3.63
2024-05-09T02:52:03.952Z,3.80
2024-05-09T02:54:49.843Z,3.17
2024-05-09T02:57:35.927Z,3.07
2024-05-09T03:00:26.764Z,3.60
2024-05-09T03:03:21.143Z,3.20
2024-05-09T03:06:07.300Z,3.17
2024-05-09T03:08:53.142Z,2.53
2024-05-09T03:11:40.570Z,2.60
2024-05-09T03:14:26.637Z,2.50
2024-05-09T03:17:12.412Z,2.03
2024-05-09T03:19:59.006Z,2.90
2024-05-09T03:22:44.979Z,2.40
2024-05-09T03:25:31.263Z,2.80
2024-05-09T03:28:17.232Z,2.50
2024-05-09T03:31:03.399Z,2.60
2024-05-09T03:33:49.809Z,1.97
2024-05-09T03:36:36.067Z,2.40
2024-05-09T03:39:22.137Z,2.00
2024-05-09T03:42:08.170Z,2.90
2024-05-09T03:44:53.905Z,2.40
2024-05-09T03:47:39.970Z,2.37
2024-05-09T03:50:33.563Z,2.50
2024-05-09T03:53:22.925Z,3.00
2024-05-09T03:56:09.175Z,2.80
2024-05-09T03:58:55.691Z,2.73
2024-05-09T04:01:41.873Z,2.90
2024-05-09T04:04:27.855Z,2.57
2024-05-09T04:07:13.598Z,2.50
2024-05-09T04:09:59.749Z,3.03
2024-05-09T04:12:45.507Z,2.00
2024-05-09T04:15:31.617Z,2.73
2024-05-09T04:18:18.593Z,2.47
2024-05-09T04:21:05.212Z,2.77
2024-05-09T04:23:51.212Z,2.70
2024-05-09T04:26:37.204Z,2.80
2024-05-09T04:29:23.038Z,2.47
2024-05-09T04:32:09.121Z,2.60
2024-05-09T04:34:54.980Z,3.40
2024-05-09T04:37:41.535Z,2.40
2024-05-09T04:40:33.213Z,2.70
2024-05-09T04:43:22.176Z,4.23
2024-05-09T04:46:07.931Z,2.97
2024-05-09T04:48:54.142Z,2.50
2024-05-09T04:51:41.951Z,1.73
2024-05-09T04:54:34.308Z,1.80
2024-05-09T04:57:22.564Z,1.77
2024-05-09T05:00:14.628Z,2.50
2024-05-09T05:03:10.524Z,2.30
2024-05-09T05:05:58.554Z,2.50
2024-05-09T05:08:44.354Z,2.00
2024-05-09T05:11:30.406Z,2.27
2024-05-09T05:14:16.286Z,2.00
2024-05-09T05:17:02.206Z,3.27
2024-05-09T05:19:48.307Z,2.33
2024-05-09T05:22:34.022Z,2.10
2024-05-09T05:25:19.899Z,2.57
2024-05-09T05:28:06.346Z,2.37
2024-05-09T05:30:52.441Z,2.57
2024-05-09T05:33:38.530Z,2.50
2024-05-09T05:36:24.365Z,2.47
2024-05-09T05:39:10.311Z,2.93
2024-05-09T05:41:56.370Z,2.87
2024-05-09T05:44:42.329Z,2.40
2024-05-09T05:47:28.379Z,2.70
2024-05-09T05:50:23.597Z,3.50
2024-05-09T05:53:13.746Z,3.00
2024-05-09T05:56:00.142Z,2.33
2024-05-09T05:58:46.411Z,2.60
2024-05-09T06:01:32.316Z,3.13
2024-05-09T06:04:18.302Z,2.93
2024-05-09T06:07:04.344Z,3.50
2024-05-09T06:09:50.564Z,2.60
2024-05-09T06:12:37.439Z,2.83
2024-05-09T06:15:23.551Z,3.37
2024-05-09T06:18:10.978Z,3.07
2024-05-09T06:20:58.053Z,3.07
2024-05-09T06:23:48.375Z,3.07
2024-05-09T06:26:34.538Z,3.33
2024-05-09T06:29:20.473Z,3.30
2024-05-09T06:32:07.108Z,3.67
2024-05-09T06:34:53.192Z,4.47
2024-05-09T06:37:38.989Z,3.50
2024-05-09T06:40:29.480Z,3.77
2024-05-09T06:43:21.552Z,4.00
2024-05-09T06:46:07.627Z,4.20
2024-05-09T06:48:54.065Z,3.83
2024-05-09T06:51:40.807Z,3.63
2024-05-09T06:54:26.673Z,4.63
2024-05-09T06:57:12.634Z,4.77
2024-05-09T07:00:00.799Z,4.13
2024-05-09T07:02:47.993Z,4.57
2024-05-09T07:05:34.143Z,4.63
2024-05-09T07:08:20.096Z,5.17
2024-05-09T07:11:06.109Z,4.87
2024-05-09T07:13:52.160Z,5.10
2024-05-09T07:16:38.418Z,6.33
2024-05-09T07:19:24.309Z,6.63
2024-05-09T07:22:10.247Z,6.50
2024-05-09T07:24:56.176Z,9.50
2024-05-09T07:27:42.052Z,9.90
2024-05-09T07:30:33.303Z,12.00
2024-05-09T07:33:23.586Z,11.80
2024-05-09T07:36:10.468Z,11.00
2024-05-09T07:38:56.358Z,15.33
2024-05-09T07:41:42.358Z,14.90
2024-05-09T07:44:30.457Z,16.93
2024-05-09T07:48:28.939Z,17.00
2024-05-09T07:53:37.176Z,20.63
2024-05-09T07:56:19.891Z,19.73
2024-05-09T07:59:07.957Z,21.40
2024-05-09T08:01:55.023Z,23.43
2024-05-09T08:04:40.882Z,27.30
2024-05-09T08:07:26.729Z,27.33
2024-05-09T08:10:15.406Z,27.93
2024-05-09T08:13:04.830Z,29.25
2024-05-09T08:15:52.468Z,34.17
2024-05-09T08:18:38.713Z,27.33
2024-05-09T08:21:25.069Z,33.17
2024-05-09T08:24:11.694Z,30.53
2024-05-09T08:26:57.735Z,27.03
2024-05-09T08:29:44.031Z,32.47
2024-05-09T08:32:32.327Z,30.20
2024-05-09T08:35:18.273Z,30.97
2024-05-09T08:38:06.296Z,34.20
2024-05-09T08:40:52.908Z,33.83
2024-05-09T08:43:40.658Z,33.43
2024-05-09T08:46:30.577Z,32.67
2024-05-09T08:49:16.691Z,34.00
2024-05-09T08:52:02.831Z,33.73
2024-05-09T08:54:48.894Z,33.10
2024-05-09T08:57:36.712Z,33.27
2024-05-09T09:00:33.413Z,34.30
2024-05-09T09:03:30.950Z,33.10
2024-05-09T09:06:21.423Z,34.13
2024-05-09T09:09:07.676Z,32.33
2024-05-09T09:11:54.657Z,33.40
2024-05-09T09:14:40.568Z,33.17
2024-05-09T09:17:26.667Z,33.27
2024-05-09T09:20:16.584Z,34.37
2024-05-09T09:23:05.148Z,33.63
2024-05-09T09:25:51.995Z,33.17
2024-05-09T09:28:38.231Z,32.07
2024-05-09T09:31:24.492Z,33.07
2024-05-09T09:34:10.536Z,34.00
2024-05-09T09:37:05.911Z,33.80
2024-05-09T09:39:52.036Z,33.87
2024-05-09T09:42:38.397Z,33.90
2024-05-09T09:45:26.610Z,35.27
2024-05-09T09:48:15.093Z,36.30
2024-05-09T09:51:01.558Z,35.10
2024-05-09T09:53:49.373Z,34.80
2024-05-09T09:56:39.509Z,36.03
2024-05-09T09:59:26.227Z,36.30
2024-05-09T10:02:13.916Z,39.75
2024-05-09T10:05:01.306Z,45.93
2024-05-09T10:07:47.792Z,44.10
2024-05-09T10:10:35.816Z,43.63
2024-05-09T10:13:33.396Z,36.30
2024-05-09T10:16:23.165Z,35.67
2024-05-09T10:19:09.353Z,39.45
2024-05-09T10:22:01.686Z,39.78
2024-05-09T10:24:52.943Z,41.03
2024-05-09T10:27:39.475Z,40.03
2024-05-09T10:30:33.816Z,40.67
2024-05-09T10:33:21.875Z,43.17
2024-05-09T10:36:14.983Z,42.78
2024-05-09T10:39:00.854Z,49.28
2024-05-09T10:41:46.759Z,51.40
2024-05-09T10:44:38.210Z,54.43
2024-05-09T10:47:25.980Z,42.10
2024-05-09T10:50:18.576Z,43.45
2024-05-09T10:53:11.528Z,42.03
2024-05-09T10:56:01.537Z,41.53
2024-05-09T10:58:48.202Z,44.00
2024-05-09T11:01:34.085Z,42.85
2024-05-09T11:04:20.515Z,42.33
2024-05-09T11:07:10.842Z,43.72
2024-05-09T11:09:56.865Z,41.83
2024-05-09T11:12:46.400Z,41.20
2024-05-09T11:15:41.903Z,42.08
2024-05-09T11:18:32.335Z,43.58
2024-05-09T11:21:21.449Z,44.40
2024-05-09T11:24:10.508Z,44.60
2024-05-09T11:27:03.485Z,46.13
2024-05-09T11:32:38.200Z,39.50
2024-05-09T11:35:25.873Z,45.25
2024-05-09T11:38:11.705Z,46.78
2024-05-09T11:40:57.696Z,46.30
2024-05-09T11:43:43.639Z,46.40
2024-05-09T11:46:29.551Z,47.35
2024-05-09T11:49:15.734Z,49.88
2024-05-09T11:52:01.564Z,50.08
2024-05-09T11:54:47.505Z,48.58
2024-05-09T11:57:33.522Z,47.90
2024-05-09T12:00:29.062Z,53.55
2024-05-09T12:03:20.927Z,48.20
2024-05-09T12:06:06.999Z,50.00
2024-05-09T12:08:53.744Z,58.13
2024-05-09T12:11:40.139Z,53.03
2024-05-09T12:14:26.269Z,58.72
2024-05-09T12:17:13.631Z,59.83
2024-05-09T12:20:00.036Z,53.83
2024-05-09T12:22:47.647Z,50.53
2024-05-09T12:25:33.992Z,51.78
2024-05-09T12:28:20.805Z,56.72
2024-05-09T12:31:06.805Z,55.95
2024-05-09T12:33:54.678Z,56.88
2024-05-09T12:36:40.785Z,52.45
2024-05-09T12:39:26.752Z,52.75
2024-05-09T12:42:22.318Z,52.95
2024-05-09T12:45:12.644Z,55.13
2024-05-09T12:47:59.019Z,58.70
2024-05-09T12:50:45.141Z,55.70
2024-05-09T12:53:30.886Z,54.00
2024-05-09T12:56:16.916Z,56.22
2024-05-09T12:59:02.778Z,57.85
2024-05-09T13:01:48.710Z,56.63
2024-05-09T13:04:35.488Z,56.92
2024-05-09T13:07:21.743Z,55.83
2024-05-09T13:10:13.945Z,54.13
2024-05-09T13:13:05.824Z,52.33
2024-05-09T13:15:51.915Z,53.42
2024-05-09T13:18:38.055Z,53.10
2024-05-09T13:21:24.255Z,54.55
2024-05-09T13:24:10.170Z,54.50
2024-05-09T13:26:56.284Z,55.63
2024-05-09T13:29:44.212Z,53.05
2024-05-09T13:32:30.180Z,54.22
2024-05-09T13:35:16.085Z,54.88
2024-05-09T13:38:02.765Z,54.70
2024-05-09T13:40:49.382Z,55.38
2024-05-09T13:43:36.335Z,55.38
2024-05-09T13:46:22.662Z,54.55
2024-05-09T13:49:10.735Z,52.90
2024-05-09T13:51:58.246Z,55.95
2024-05-09T13:54:44.233Z,57.42
2024-05-09T13:57:30.111Z,58.35
2024-05-09T14:00:27.382Z,59.50
2024-05-09T14:03:22.140Z,55.92
2024-05-09T14:06:10.536Z,55.92
2024-05-09T14:08:57.950Z,56.15
2024-05-09T14:11:44.014Z,56.88
2024-05-09T14:14:29.837Z,57.22
2024-05-09T14:17:15.923Z,58.20
2024-05-09T14:20:01.747Z,57.60
2024-05-09T14:22:47.767Z,56.92
2024-05-09T14:25:38.661Z,58.30
2024-05-09T14:28:27.974Z,54.42
2024-05-09T14:31:14.097Z,53.10
2024-05-09T14:34:00.151Z,51.45
2024-05-09T14:36:46.458Z,53.10
2024-05-09T14:39:32.381Z,55.15
2024-05-09T14:42:18.269Z,58.10
2024-05-09T14:45:06.165Z,55.72
2024-05-09T14:47:52.419Z,55.47
2024-05-09T14:50:40.282Z,55.53
2024-05-09T14:53:28.401Z,55.78
2024-05-09T14:56:14.869Z,55.78
2024-05-09T14:59:00.618Z,51.03
2024-05-09T15:01:46.667Z,48.28
2024-05-09T15:04:32.492Z,49.90
2024-05-09T15:07:18.491Z,51.70
2024-05-09T15:10:09.055Z,51.60
2024-05-09T15:12:59.455Z,49.33
2024-05-09T15:15:45.546Z,50.80
2024-05-09T15:18:31.687Z,51.00
2024-05-09T15:21:17.842Z,50.72
2024-05-09T15:24:03.646Z,49.97
2024-05-09T15:26:49.691Z,52.03
2024-05-09T15:29:35.715Z,50.33
2024-05-09T15:32:21.630Z,51.42
2024-05-09T15:35:07.679Z,51.42
2024-05-09T15:37:53.832Z,49.67
2024-05-09T15:40:40.898Z,49.60
2024-05-09T15:43:28.069Z,50.95
2024-05-09T15:46:14.700Z,49.08
2024-05-09T15:49:01.562Z,50.10
2024-05-09T15:51:47.743Z,50.35
2024-05-09T15:54:33.755Z,51.90
2024-05-09T15:57:19.885Z,49.92
2024-05-09T16:00:12.232Z,49.90
2024-05-09T16:03:04.076Z,51.05
2024-05-09T16:05:51.808Z,48.92
2024-05-09T16:08:37.966Z,48.25
2024-05-09T16:11:24.250Z,50.40
2024-05-09T16:14:10.439Z,51.58
2024-05-09T16:16:56.505Z,50.13
2024-05-09T16:19:42.708Z,48.05
2024-05-09T16:22:28.784Z,45.17
2024-05-09T16:25:14.774Z,47.30
2024-05-09T16:28:00.891Z,45.75
2024-05-09T16:30:47.227Z,52.13
2024-05-09T16:33:33.468Z,47.72
2024-05-09T16:36:19.786Z,45.42
2024-05-09T16:39:06.049Z,49.95
2024-05-09T16:41:52.212Z,45.15
2024-05-09T16:44:38.052Z,45.75
2024-05-09T16:47:24.173Z,46.42
2024-05-09T16:50:10.775Z,46.38
2024-05-09T16:52:59.113Z,46.20
2024-05-09T16:55:45.279Z,45.40
2024-05-09T16:58:31.589Z,47.05
2024-05-09T17:01:17.575Z,45.60
2024-05-09T17:04:03.746Z,44.80
2024-05-09T17:06:51.118Z,42.30
2024-05-09T17:09:37.007Z,45.45
2024-05-09T17:12:22.850Z,42.53
2024-05-09T17:15:08.928Z,43.40
2024-05-09T17:17:55.506Z,40.53
2024-05-09T17:20:41.333Z,41.03
2024-05-09T17:23:28.162Z,41.83
2024-05-09T17:26:15.005Z,41.30
2024-05-09T17:29:01.054Z,41.63
2024-05-09T17:31:47.116Z,41.63
2024-05-09T17:34:33.393Z,40.85
2024-05-09T17:37:19.833Z,43.92
2024-05-09T17:40:14.352Z,39.55
2024-05-09T17:43:03.496Z,39.38
2024-05-09T17:45:49.908Z,39.13
2024-05-09T17:48:36.135Z,40.22
2024-05-09T17:51:22.276Z,39.22
2024-05-09T17:54:08.502Z,40.00
2024-05-09T17:56:54.557Z,39.53
2024-05-09T17:59:40.392Z,38.50
2024-05-09T18:02:26.594Z,38.67
2024-05-09T18:05:12.442Z,38.92
2024-05-09T18:07:58.440Z,40.03
2024-05-09T18:10:44.619Z,39.83
2024-05-09T18:13:31.266Z,40.55
2024-05-09T18:16:18.196Z,39.33
2024-05-09T18:19:04.790Z,38.45
2024-05-09T18:21:50.722Z,43.35
2024-05-09T18:24:36.823Z,45.50
2024-05-09T18:27:23.512Z,46.20
2024-05-09T18:30:23.740Z,49.70
2024-05-09T18:33:14.050Z,45.90
2024-05-09T18:36:00.198Z,37.92
2024-05-09T18:38:46.050Z,36.65
2024-05-09T18:41:32.288Z,37.83
2024-05-09T18:44:18.553Z,36.10
2024-05-09T18:47:05.045Z,37.92
2024-05-09T18:49:51.498Z,38.00
2024-05-09T18:52:37.897Z,37.20
2024-05-09T18:55:23.970Z,37.28
2024-05-09T18:58:10.901Z,36.17
2024-05-09T19:00:59.913Z,35.05
2024-05-09T19:03:48.486Z,36.08
2024-05-09T19:06:36.399Z,35.95
2024-05-09T19:09:23.107Z,35.10
2024-05-09T19:12:09.549Z,33.92
2024-05-09T19:14:55.505Z,33.47
2024-05-09T19:17:41.672Z,35.00
2024-05-09T19:20:33.396Z,34.93
2024-05-09T19:23:20.940Z,34.63
2024-05-09T19:26:08.535Z,32.72
2024-05-09T19:28:54.432Z,33.87
2024-05-09T19:31:40.379Z,34.05
2024-05-09T19:34:26.635Z,36.05
2024-05-09T19:37:12.608Z,36.33
2024-05-09T19:39:58.790Z,34.33
2024-05-09T19:42:44.948Z,34.50
2024-05-09T19:45:32.313Z,33.83
2024-05-09T19:48:19.164Z,34.70
2024-05-09T19:51:05.660Z,34.87
2024-05-09T19:53:51.635Z,34.27
2024-05-09T19:56:40.383Z,33.13
2024-05-09T19:59:26.785Z,34.07
2024-05-09T20:02:13.403Z,30.63
2024-05-09T20:05:02.283Z,34.60
2024-05-09T20:07:48.520Z,21.63
2024-05-09T20:10:36.235Z,21.77
2024-05-09T20:13:22.976Z,19.87
2024-05-09T20:16:09.431Z,19.80
2024-05-09T20:18:55.561Z,20.80
2024-05-09T20:21:44.705Z,18.77
2024-05-09T20:24:30.854Z,18.07
2024-05-09T20:27:16.894Z,20.13
2024-05-09T20:30:03.965Z,18.67
2024-05-09T20:32:52.686Z,18.20
2024-05-09T20:35:38.615Z,19.00
2024-05-09T20:38:24.680Z,16.87
2024-05-09T20:41:10.567Z,14.73
2024-05-09T20:44:00.513Z,16.67
2024-05-09T20:46:46.409Z,14.90
2024-05-09T20:49:32.372Z,16.17
2024-05-09T20:52:18.766Z,17.10
2024-05-09T20:55:05.111Z,20.70
2024-05-09T20:57:52.126Z,19.27
2024-05-09T21:00:41.920Z,20.07
2024-05-09T21:06:18.981Z,9.47
2024-05-09T21:09:05.199Z,14.53
2024-05-09T21:11:51.506Z,17.90
2024-05-09T21:14:37.975Z,19.10
2024-05-09T21:17:23.877Z,20.20
2024-05-09T21:20:16.897Z,22.93
2024-05-09T21:23:06.234Z,19.43
2024-05-09T21:25:52.437Z,20.13
2024-05-09T21:28:38.842Z,19.57
2024-05-09T21:31:24.859Z,19.57
2024-05-09T21:34:11.200Z,19.30
2024-05-09T21:36:57.365Z,18.40
2024-05-09T21:39:43.776Z,19.10
2024-05-09T21:42:29.928Z,20.20
2024-05-09T21:45:15.893Z,19.43
2024-05-09T21:48:04.037Z,19.30
2024-05-09T21:50:49.981Z,19.00
2024-05-09T21:53:37.819Z,18.93
2024-05-09T21:56:23.886Z,16.93
2024-05-09T21:59:09.885Z,17.97
2024-05-09T22:01:56.020Z,17.23
2024-05-09T22:04:42.351Z,18.10
2024-05-09T22:07:28.974Z,16.87
2024-05-09T22:10:22.778Z,18.00
2024-05-09T22:13:15.639Z,16.43
2024-05-09T22:16:05.991Z,15.73
2024-05-09T22:18:52.077Z,15.87
2024-05-09T22:21:38.416Z,14.27
2024-05-09T22:24:24.363Z,13.10
2024-05-09T22:27:11.837Z,17.10
2024-05-09T22:29:57.747Z,18.57
2024-05-09T22:32:43.776Z,17.00
2024-05-09T22:35:30.293Z,17.17
2024-05-09T22:38:17.055Z,16.97
2024-05-09T22:41:08.042Z,15.50
2024-05-09T22:43:54.810Z,14.63
2024-05-09T22:46:40.743Z,15.70
2024-05-09T22:49:28.057Z,16.17
2024-05-09T22:52:14.355Z,14.37
2024-05-09T22:55:00.104Z,14.87
2024-05-09T22:57:46.655Z,15.20
2024-05-09T23:00:33.614Z,15.83
2024-05-09T23:03:21.769Z,15.67
2024-05-09T23:06:09.287Z,16.33
2024-05-09T23:08:55.313Z,13.57
2024-05-09T23:11:42.102Z,14.63
2024-05-09T23:14:28.289Z,14.50
2024-05-09T23:17:14.385Z,15.13
2024-05-09T23:20:00.667Z,16.03
2024-05-09T23:22:46.903Z,13.43
2024-05-09T23:25:32.774Z,12.53
2024-05-09T23:28:18.838Z,13.20
2024-05-09T23:31:05.234Z,12.13
2024-05-09T23:33:51.516Z,12.30
2024-05-09T23:36:38.537Z,13.07
2024-05-09T23:39:25.165Z,10.33
2024-05-09T23:42:11.239Z,12.13
2024-05-09T23:44:58.438Z,11.57
2024-05-09T23:47:45.103Z,10.80
2024-05-09T23:50:35.550Z,13.17
2024-05-09T23:53:23.869Z,12.43
2024-05-09T23:56:09.679Z,11.83
2024-05-09T23:58:56.025Z,12.13
